Snohomish, WA (98290)

2:51 AM PST on February 09, 2016 (GMT -0800)
Panther Lake East | | Change Station
CLOSE
Current Station
Personal Weather Station
Location: Snohomish, WA
Elevation: 551 ft
Nearby Weather Stations

Elev 551 ft 47.95 °N, 122.00 °W | Updated 42 seconds ago

Partly Cloudy
Partly Cloudy
39.7 °F
Feels Like 40 °F
N
0.0
Wind Variable Wind from SSW
Gusts 0.0 mph

Today
High -- | Low -- °F
--% Chance of Precip.
Yesterday
High -- | Low -- °F
Precip. -- in
Pressure 30.24 in
Visibility 2.0 miles
Clouds Clear
Windchill 40 °F
Dew Point 39 °F
Humidity 98%
Rainfall 0.00 in
Snow Depth Not available.
7:24 AM 5:20 PM
New Moon, 1% visible
SPECI KPAE 091033Z AUTO 02005KT 2SM BR CLR 06/05 A3024 RMK AO2 T00610050
Pressure 30.24 in
Visibility 2.0 miles
Clouds Clear
Windchill 40 °F
Dew Point 39 °F
Humidity 98%
Rainfall 0.00 in
Snow Depth Not available.
7:24 AM 5:20 PM
New Moon, 1% visible
SPECI KPAE 091033Z AUTO 02005KT 2SM BR CLR 06/05 A3024 RMK AO2 T00610050

10-Day Weather Forecast

Almanac

Astronomy

Feb. 09, 2016 Rise Set
Actual Time
Civil Twilight
Nautical Twilight
Astronomical Twilight
Moon
Length of Visible Light
Length of Day
Tomorrow will be .
, % of the Moon is Illuminated

Today's Extremes

State Highs State Lows

Community

WunderPhotos

Upload Photos

1,891,565 photos uploaded!

WunderBlog® & News

Nearby

Air Quality

  Air Quality AQ Index Pollutant
Not available.

Snow Depth

Station Depth Elevation

Earthquake Activity

City Distance Mag. Time & Date
Minimum magnitude displayed is 2.5.

Coastal Water Temperatures

Place Temperature

Stations

Nearby Weather Stations

Station Location Temp. Windchill Dew Point Humidity Wind Precip. Elev Updated Type
                   

Watches & Warnings

There are currently no watches in effect.